sensor_id;sensor_type;location;lat;lon;timestamp;P1;durP1;ratioP1;P2;durP2;ratioP2
63203;SDS011;49297;43.210;27.914;2022-11-25T00:00:22;2.92;;;2.22;;
63203;SDS011;49297;43.210;27.914;2022-11-25T00:02:48;3.55;;;3.08;;
63203;SDS011;49297;43.210;27.914;2022-11-25T00:05:14;3.33;;;3.03;;
63203;SDS011;49297;43.210;27.914;2022-11-25T00:07:40;4.30;;;2.65;;
63203;SDS011;49297;43.210;27.914;2022-11-25T00:10:06;4.82;;;2.63;;
63203;SDS011;49297;43.210;27.914;2022-11-25T00:12:32;2.25;;;2.03;;
63203;SDS011;49297;43.210;27.914;2022-11-25T00:14:58;2.75;;;2.55;;
63203;SDS011;49297;43.210;27.914;2022-11-25T00:17:24;4.53;;;3.70;;
63203;SDS011;49297;43.210;27.914;2022-11-25T00:19:49;3.92;;;2.63;;
63203;SDS011;49297;43.210;27.914;2022-11-25T00:22:15;2.90;;;2.60;;
63203;SDS011;49297;43.210;27.914;2022-11-25T00:24:41;3.42;;;2.65;;
63203;SDS011;49297;43.210;27.914;2022-11-25T00:27:07;3.40;;;3.10;;
63203;SDS011;49297;43.210;27.914;2022-11-25T00:29:33;5.97;;;3.05;;
63203;SDS011;49297;43.210;27.914;2022-11-25T00:32:00;4.90;;;3.40;;
63203;SDS011;49297;43.210;27.914;2022-11-25T00:34:25;2.58;;;2.38;;
63203;SDS011;49297;43.210;27.914;2022-11-25T00:36:51;3.17;;;2.63;;
63203;SDS011;49297;43.210;27.914;2022-11-25T00:39:17;3.78;;;3.45;;
63203;SDS011;49297;43.210;27.914;2022-11-25T00:41:44;3.42;;;3.13;;
63203;SDS011;49297;43.210;27.914;2022-11-25T00:44:29;3.05;;;2.38;;
63203;SDS011;49297;43.210;27.914;2022-11-25T00:47:09;3.92;;;2.72;;
63203;SDS011;49297;43.210;27.914;2022-11-25T00:49:43;5.93;;;4.45;;
63203;SDS011;49297;43.210;27.914;2022-11-25T00:52:15;7.25;;;3.38;;
63203;SDS011;49297;43.210;27.914;2022-11-25T00:54:42;5.13;;;4.45;;
63203;SDS011;49297;43.210;27.914;2022-11-25T00:57:09;4.65;;;4.25;;
63203;SDS011;49297;43.210;27.914;2022-11-25T00:59:36;4.32;;;3.95;;
63203;SDS011;49297;43.210;27.914;2022-11-25T01:02:01;6.38;;;3.90;;
63203;SDS011;49297;43.210;27.914;2022-11-25T01:04:28;5.15;;;4.15;;
63203;SDS011;49297;43.210;27.914;2022-11-25T01:06:54;6.55;;;3.97;;
63203;SDS011;49297;43.210;27.914;2022-11-25T01:09:21;4.00;;;3.28;;
63203;SDS011;49297;43.210;27.914;2022-11-25T01:11:50;6.65;;;3.88;;
63203;SDS011;49297;43.210;27.914;2022-11-25T01:14:17;4.95;;;3.60;;
63203;SDS011;49297;43.210;27.914;2022-11-25T01:16:44;4.78;;;3.40;;
63203;SDS011;49297;43.210;27.914;2022-11-25T01:19:10;3.97;;;3.58;;
63203;SDS011;49297;43.210;27.914;2022-11-25T01:21:37;3.35;;;3.05;;
63203;SDS011;49297;43.210;27.914;2022-11-25T01:24:03;4.20;;;3.90;;
63203;SDS011;49297;43.210;27.914;2022-11-25T01:26:30;4.05;;;3.53;;
63203;SDS011;49297;43.210;27.914;2022-11-25T01:28:58;4.30;;;3.22;;
63203;SDS011;49297;43.210;27.914;2022-11-25T01:31:27;4.95;;;3.70;;
63203;SDS011;49297;43.210;27.914;2022-11-25T01:33:58;4.18;;;3.75;;
63203;SDS011;49297;43.210;27.914;2022-11-25T01:36:26;3.45;;;3.15;;
63203;SDS011;49297;43.210;27.914;2022-11-25T01:38:56;3.70;;;3.40;;
63203;SDS011;49297;43.210;27.914;2022-11-25T01:41:24;5.10;;;4.20;;
63203;SDS011;49297;43.210;27.914;2022-11-25T01:44:05;8.48;;;3.97;;
63203;SDS011;49297;43.210;27.914;2022-11-25T01:46:42;6.80;;;6.10;;
63203;SDS011;49297;43.210;27.914;2022-11-25T01:49:13;6.40;;;5.18;;
63203;SDS011;49297;43.210;27.914;2022-11-25T01:54:19;5.85;;;5.18;;
63203;SDS011;49297;43.210;27.914;2022-11-25T01:56:51;5.88;;;5.32;;
63203;SDS011;49297;43.210;27.914;2022-11-25T01:59:24;4.88;;;3.88;;
63203;SDS011;49297;43.210;27.914;2022-11-25T02:01:52;4.95;;;4.47;;
63203;SDS011;49297;43.210;27.914;2022-11-25T02:04:19;5.57;;;5.07;;
63203;SDS011;49297;43.210;27.914;2022-11-25T02:06:51;4.75;;;3.47;;
63203;SDS011;49297;43.210;27.914;2022-11-25T02:09:21;6.13;;;5.50;;
63203;SDS011;49297;43.210;27.914;2022-11-25T02:11:47;4.72;;;3.67;;
63203;SDS011;49297;43.210;27.914;2022-11-25T02:14:15;4.70;;;4.30;;
63203;SDS011;49297;43.210;27.914;2022-11-25T02:16:43;6.97;;;4.90;;
63203;SDS011;49297;43.210;27.914;2022-11-25T02:19:14;4.95;;;4.07;;
63203;SDS011;49297;43.210;27.914;2022-11-25T02:21:50;11.10;;;4.03;;
63203;SDS011;49297;43.210;27.914;2022-11-25T02:26:53;5.85;;;5.00;;
63203;SDS011;49297;43.210;27.914;2022-11-25T02:29:21;5.70;;;5.18;;
63203;SDS011;49297;43.210;27.914;2022-11-25T02:31:48;5.82;;;4.15;;
63203;SDS011;49297;43.210;27.914;2022-11-25T02:34:15;6.25;;;4.90;;
63203;SDS011;49297;43.210;27.914;2022-11-25T02:36:41;5.35;;;4.78;;
63203;SDS011;49297;43.210;27.914;2022-11-25T02:39:07;5.28;;;3.85;;
63203;SDS011;49297;43.210;27.914;2022-11-25T02:41:38;6.55;;;4.25;;
63203;SDS011;49297;43.210;27.914;2022-11-25T02:44:08;4.32;;;3.92;;
63203;SDS011;49297;43.210;27.914;2022-11-25T02:46:34;5.65;;;4.32;;
63203;SDS011;49297;43.210;27.914;2022-11-25T02:49:00;6.13;;;4.50;;
63203;SDS011;49297;43.210;27.914;2022-11-25T02:51:28;4.07;;;3.60;;
63203;SDS011;49297;43.210;27.914;2022-11-25T02:53:56;6.28;;;4.30;;
63203;SDS011;49297;43.210;27.914;2022-11-25T02:56:23;8.75;;;4.82;;
63203;SDS011;49297;43.210;27.914;2022-11-25T02:58:51;5.88;;;4.82;;
63203;SDS011;49297;43.210;27.914;2022-11-25T03:01:17;5.95;;;4.72;;
63203;SDS011;49297;43.210;27.914;2022-11-25T03:03:45;4.93;;;4.28;;
63203;SDS011;49297;43.210;27.914;2022-11-25T03:06:11;5.13;;;3.75;;
63203;SDS011;49297;43.210;27.914;2022-11-25T03:08:37;3.20;;;2.70;;
63203;SDS011;49297;43.210;27.914;2022-11-25T03:11:04;3.65;;;3.28;;
63203;SDS011;49297;43.210;27.914;2022-11-25T03:13:30;3.97;;;3.60;;
63203;SDS011;49297;43.210;27.914;2022-11-25T03:15:56;5.60;;;3.47;;
63203;SDS011;49297;43.210;27.914;2022-11-25T03:18:22;3.28;;;2.80;;
63203;SDS011;49297;43.210;27.914;2022-11-25T03:20:54;4.05;;;3.72;;
63203;SDS011;49297;43.210;27.914;2022-11-25T03:23:21;3.50;;;3.20;;
63203;SDS011;49297;43.210;27.914;2022-11-25T03:25:47;4.10;;;3.70;;
63203;SDS011;49297;43.210;27.914;2022-11-25T03:28:13;8.57;;;4.50;;
63203;SDS011;49297;43.210;27.914;2022-11-25T03:30:39;8.98;;;3.28;;
63203;SDS011;49297;43.210;27.914;2022-11-25T03:33:06;4.18;;;3.45;;
63203;SDS011;49297;43.210;27.914;2022-11-25T03:35:32;6.00;;;3.75;;
63203;SDS011;49297;43.210;27.914;2022-11-25T03:37:58;4.95;;;4.00;;
63203;SDS011;49297;43.210;27.914;2022-11-25T03:40:23;4.05;;;3.58;;
63203;SDS011;49297;43.210;27.914;2022-11-25T03:42:49;5.32;;;4.80;;
63203;SDS011;49297;43.210;27.914;2022-11-25T03:45:15;6.22;;;4.20;;
63203;SDS011;49297;43.210;27.914;2022-11-25T03:47:43;4.50;;;3.65;;
63203;SDS011;49297;43.210;27.914;2022-11-25T03:50:10;3.72;;;3.33;;
63203;SDS011;49297;43.210;27.914;2022-11-25T03:52:37;5.35;;;4.65;;
63203;SDS011;49297;43.210;27.914;2022-11-25T03:55:03;6.93;;;4.75;;
63203;SDS011;49297;43.210;27.914;2022-11-25T03:57:30;5.10;;;4.32;;
63203;SDS011;49297;43.210;27.914;2022-11-25T03:59:57;7.90;;;3.05;;
63203;SDS011;49297;43.210;27.914;2022-11-25T04:02:23;5.55;;;4.55;;
63203;SDS011;49297;43.210;27.914;2022-11-25T04:04:48;3.85;;;3.55;;
63203;SDS011;49297;43.210;27.914;2022-11-25T04:07:14;4.65;;;4.25;;
63203;SDS011;49297;43.210;27.914;2022-11-25T04:09:40;5.57;;;4.47;;
63203;SDS011;49297;43.210;27.914;2022-11-25T04:12:06;5.05;;;3.95;;
63203;SDS011;49297;43.210;27.914;2022-11-25T04:14:50;4.03;;;2.83;;
63203;SDS011;49297;43.210;27.914;2022-11-25T04:17:16;3.65;;;3.35;;
63203;SDS011;49297;43.210;27.914;2022-11-25T04:19:43;3.00;;;2.78;;
63203;SDS011;49297;43.210;27.914;2022-11-25T04:22:08;3.30;;;2.92;;
63203;SDS011;49297;43.210;27.914;2022-11-25T04:24:34;3.75;;;3.45;;
63203;SDS011;49297;43.210;27.914;2022-11-25T04:27:01;5.13;;;4.10;;
63203;SDS011;49297;43.210;27.914;2022-11-25T04:29:26;4.10;;;3.22;;
63203;SDS011;49297;43.210;27.914;2022-11-25T04:31:52;5.57;;;3.58;;
63203;SDS011;49297;43.210;27.914;2022-11-25T04:34:18;4.05;;;3.30;;
63203;SDS011;49297;43.210;27.914;2022-11-25T04:36:44;4.68;;;4.13;;
63203;SDS011;49297;43.210;27.914;2022-11-25T04:39:10;3.63;;;3.33;;
63203;SDS011;49297;43.210;27.914;2022-11-25T04:41:36;6.22;;;5.03;;
63203;SDS011;49297;43.210;27.914;2022-11-25T04:44:01;5.38;;;4.28;;
63203;SDS011;49297;43.210;27.914;2022-11-25T04:46:30;11.15;;;5.88;;
63203;SDS011;49297;43.210;27.914;2022-11-25T04:49:01;10.18;;;4.05;;
63203;SDS011;49297;43.210;27.914;2022-11-25T04:51:27;5.00;;;3.63;;
63203;SDS011;49297;43.210;27.914;2022-11-25T04:53:53;4.57;;;3.60;;
63203;SDS011;49297;43.210;27.914;2022-11-25T04:56:19;4.93;;;4.13;;
63203;SDS011;49297;43.210;27.914;2022-11-25T04:58:46;4.85;;;4.30;;
63203;SDS011;49297;43.210;27.914;2022-11-25T05:01:31;7.95;;;6.80;;
63203;SDS011;49297;43.210;27.914;2022-11-25T05:03:57;7.70;;;6.38;;
63203;SDS011;49297;43.210;27.914;2022-11-25T05:06:22;6.90;;;6.00;;
63203;SDS011;49297;43.210;27.914;2022-11-25T05:08:49;6.40;;;5.60;;
63203;SDS011;49297;43.210;27.914;2022-11-25T05:11:15;4.47;;;4.07;;
63203;SDS011;49297;43.210;27.914;2022-11-25T05:13:41;4.65;;;4.22;;
63203;SDS011;49297;43.210;27.914;2022-11-25T05:16:07;6.60;;;4.90;;
63203;SDS011;49297;43.210;27.914;2022-11-25T05:18:33;5.13;;;4.57;;
63203;SDS011;49297;43.210;27.914;2022-11-25T05:21:00;5.72;;;5.22;;
63203;SDS011;49297;43.210;27.914;2022-11-25T05:23:27;6.93;;;5.75;;
63203;SDS011;49297;43.210;27.914;2022-11-25T05:25:57;6.47;;;5.45;;
63203;SDS011;49297;43.210;27.914;2022-11-25T05:28:27;12.55;;;6.45;;
63203;SDS011;49297;43.210;27.914;2022-11-25T05:30:55;17.30;;;5.20;;
63203;SDS011;49297;43.210;27.914;2022-11-25T05:33:21;7.75;;;6.55;;
63203;SDS011;49297;43.210;27.914;2022-11-25T05:35:54;8.45;;;7.60;;
63203;SDS011;49297;43.210;27.914;2022-11-25T05:38:21;14.50;;;6.50;;
63203;SDS011;49297;43.210;27.914;2022-11-25T05:40:47;16.65;;;6.25;;
63203;SDS011;49297;43.210;27.914;2022-11-25T05:43:13;8.40;;;6.65;;
63203;SDS011;49297;43.210;27.914;2022-11-25T05:45:39;7.38;;;6.68;;
63203;SDS011;49297;43.210;27.914;2022-11-25T05:48:04;8.35;;;6.82;;
63203;SDS011;49297;43.210;27.914;2022-11-25T05:50:30;8.77;;;7.97;;
63203;SDS011;49297;43.210;27.914;2022-11-25T05:52:56;15.88;;;8.07;;
63203;SDS011;49297;43.210;27.914;2022-11-25T05:55:22;9.23;;;6.97;;
63203;SDS011;49297;43.210;27.914;2022-11-25T05:57:47;10.65;;;7.78;;
63203;SDS011;49297;43.210;27.914;2022-11-25T06:00:13;10.85;;;7.40;;
63203;SDS011;49297;43.210;27.914;2022-11-25T06:02:40;8.68;;;7.65;;
63203;SDS011;49297;43.210;27.914;2022-11-25T06:05:06;10.20;;;9.15;;
63203;SDS011;49297;43.210;27.914;2022-11-25T06:07:32;9.43;;;8.30;;
63203;SDS011;49297;43.210;27.914;2022-11-25T06:09:57;17.52;;;11.77;;
63203;SDS011;49297;43.210;27.914;2022-11-25T06:12:24;8.38;;;7.43;;
63203;SDS011;49297;43.210;27.914;2022-11-25T06:14:49;10.65;;;9.65;;
63203;SDS011;49297;43.210;27.914;2022-11-25T06:17:15;12.85;;;8.50;;
63203;SDS011;49297;43.210;27.914;2022-11-25T06:19:41;10.48;;;9.40;;
63203;SDS011;49297;43.210;27.914;2022-11-25T06:22:07;18.20;;;11.68;;
63203;SDS011;49297;43.210;27.914;2022-11-25T06:24:33;16.45;;;10.57;;
63203;SDS011;49297;43.210;27.914;2022-11-25T06:27:00;16.35;;;11.32;;
63203;SDS011;49297;43.210;27.914;2022-11-25T06:29:26;11.23;;;9.63;;
63203;SDS011;49297;43.210;27.914;2022-11-25T06:31:52;12.77;;;9.82;;
63203;SDS011;49297;43.210;27.914;2022-11-25T06:34:18;15.75;;;11.77;;
63203;SDS011;49297;43.210;27.914;2022-11-25T06:36:44;16.65;;;12.02;;
63203;SDS011;49297;43.210;27.914;2022-11-25T06:39:10;13.80;;;10.73;;
63203;SDS011;49297;43.210;27.914;2022-11-25T06:41:35;17.58;;;10.77;;
63203;SDS011;49297;43.210;27.914;2022-11-25T06:44:01;18.33;;;12.73;;
63203;SDS011;49297;43.210;27.914;2022-11-25T06:46:27;14.23;;;12.32;;
63203;SDS011;49297;43.210;27.914;2022-11-25T06:48:53;52.47;;;21.27;;
63203;SDS011;49297;43.210;27.914;2022-11-25T06:51:19;13.48;;;10.35;;
63203;SDS011;49297;43.210;27.914;2022-11-25T06:53:45;14.00;;;12.23;;
63203;SDS011;49297;43.210;27.914;2022-11-25T06:56:12;14.80;;;11.45;;
63203;SDS011;49297;43.210;27.914;2022-11-25T06:58:43;16.73;;;14.00;;
63203;SDS011;49297;43.210;27.914;2022-11-25T07:01:14;11.32;;;10.23;;
63203;SDS011;49297;43.210;27.914;2022-11-25T07:03:43;12.35;;;11.13;;
63203;SDS011;49297;43.210;27.914;2022-11-25T07:06:11;14.63;;;13.10;;
63203;SDS011;49297;43.210;27.914;2022-11-25T07:08:37;14.90;;;10.63;;
63203;SDS011;49297;43.210;27.914;2022-11-25T07:11:04;19.85;;;16.00;;
63203;SDS011;49297;43.210;27.914;2022-11-25T07:13:43;14.60;;;12.98;;
63203;SDS011;49297;43.210;27.914;2022-11-25T07:16:09;12.35;;;11.05;;
63203;SDS011;49297;43.210;27.914;2022-11-25T07:18:36;14.25;;;12.52;;
63203;SDS011;49297;43.210;27.914;2022-11-25T07:21:04;16.23;;;13.45;;
63203;SDS011;49297;43.210;27.914;2022-11-25T07:23:34;14.27;;;12.63;;
63203;SDS011;49297;43.210;27.914;2022-11-25T07:26:02;13.05;;;11.75;;
63203;SDS011;49297;43.210;27.914;2022-11-25T07:28:29;13.82;;;11.00;;
63203;SDS011;49297;43.210;27.914;2022-11-25T07:30:55;14.25;;;12.95;;
63203;SDS011;49297;43.210;27.914;2022-11-25T07:33:36;16.40;;;12.98;;
63203;SDS011;49297;43.210;27.914;2022-11-25T07:36:03;10.70;;;9.57;;
63203;SDS011;49297;43.210;27.914;2022-11-25T07:38:31;17.98;;;13.35;;
63203;SDS011;49297;43.210;27.914;2022-11-25T07:41:05;59.63;;;20.58;;
63203;SDS011;49297;43.210;27.914;2022-11-25T07:43:36;21.65;;;14.60;;
63203;SDS011;49297;43.210;27.914;2022-11-25T07:48:44;13.07;;;11.75;;
63203;SDS011;49297;43.210;27.914;2022-11-25T07:51:18;13.70;;;10.80;;
63203;SDS011;49297;43.210;27.914;2022-11-25T07:53:51;14.85;;;13.35;;
63203;SDS011;49297;43.210;27.914;2022-11-25T07:56:19;13.38;;;10.32;;
63203;SDS011;49297;43.210;27.914;2022-11-25T07:58:46;16.67;;;14.50;;
63203;SDS011;49297;43.210;27.914;2022-11-25T08:01:13;18.30;;;15.10;;
63203;SDS011;49297;43.210;27.914;2022-11-25T08:03:41;15.05;;;13.27;;
63203;SDS011;49297;43.210;27.914;2022-11-25T08:06:09;17.08;;;14.38;;
63203;SDS011;49297;43.210;27.914;2022-11-25T08:08:37;14.85;;;13.45;;
63203;SDS011;49297;43.210;27.914;2022-11-25T08:11:39;15.95;;;14.30;;
63203;SDS011;49297;43.210;27.914;2022-11-25T08:13:58;14.27;;;12.88;;
63203;SDS011;49297;43.210;27.914;2022-11-25T08:16:24;17.17;;;11.82;;
63203;SDS011;49297;43.210;27.914;2022-11-25T08:18:54;16.58;;;12.60;;
63203;SDS011;49297;43.210;27.914;2022-11-25T08:21:21;13.82;;;12.20;;
63203;SDS011;49297;43.210;27.914;2022-11-25T08:23:47;14.77;;;12.18;;
63203;SDS011;49297;43.210;27.914;2022-11-25T08:26:15;17.27;;;13.57;;
63203;SDS011;49297;43.210;27.914;2022-11-25T08:28:43;24.45;;;12.77;;
63203;SDS011;49297;43.210;27.914;2022-11-25T08:31:11;15.30;;;13.00;;
63203;SDS011;49297;43.210;27.914;2022-11-25T08:33:39;16.48;;;13.05;;
63203;SDS011;49297;43.210;27.914;2022-11-25T08:36:07;13.55;;;11.63;;
63203;SDS011;49297;43.210;27.914;2022-11-25T08:38:33;16.25;;;13.13;;
63203;SDS011;49297;43.210;27.914;2022-11-25T08:41:00;17.25;;;14.30;;
63203;SDS011;49297;43.210;27.914;2022-11-25T08:43:26;14.02;;;12.52;;
63203;SDS011;49297;43.210;27.914;2022-11-25T08:45:52;14.40;;;12.90;;
63203;SDS011;49297;43.210;27.914;2022-11-25T08:48:19;17.33;;;11.20;;
63203;SDS011;49297;43.210;27.914;2022-11-25T08:50:50;13.82;;;12.45;;
63203;SDS011;49297;43.210;27.914;2022-11-25T08:53:18;15.52;;;12.93;;
63203;SDS011;49297;43.210;27.914;2022-11-25T08:55:46;16.25;;;12.82;;
63203;SDS011;49297;43.210;27.914;2022-11-25T08:58:13;14.68;;;12.90;;
63203;SDS011;49297;43.210;27.914;2022-11-25T09:00:40;16.88;;;15.30;;
63203;SDS011;49297;43.210;27.914;2022-11-25T09:03:09;13.45;;;10.63;;
63203;SDS011;49297;43.210;27.914;2022-11-25T09:05:39;13.43;;;12.23;;
63203;SDS011;49297;43.210;27.914;2022-11-25T09:08:08;13.02;;;10.77;;
63203;SDS011;49297;43.210;27.914;2022-11-25T09:10:38;14.48;;;12.98;;
63203;SDS011;49297;43.210;27.914;2022-11-25T09:13:05;11.75;;;9.35;;
63203;SDS011;49297;43.210;27.914;2022-11-25T09:15:31;18.35;;;14.95;;
63203;SDS011;49297;43.210;27.914;2022-11-25T09:17:58;16.73;;;15.02;;
63203;SDS011;49297;43.210;27.914;2022-11-25T09:20:26;11.63;;;10.40;;
63203;SDS011;49297;43.210;27.914;2022-11-25T09:22:52;18.90;;;14.52;;
63203;SDS011;49297;43.210;27.914;2022-11-25T09:25:20;14.40;;;12.98;;
63203;SDS011;49297;43.210;27.914;2022-11-25T09:27:47;14.35;;;13.05;;
63203;SDS011;49297;43.210;27.914;2022-11-25T09:30:13;14.63;;;13.23;;
63203;SDS011;49297;43.210;27.914;2022-11-25T09:32:39;16.10;;;14.43;;
63203;SDS011;49297;43.210;27.914;2022-11-25T09:35:05;17.17;;;14.38;;
63203;SDS011;49297;43.210;27.914;2022-11-25T09:37:31;13.52;;;12.13;;
63203;SDS011;49297;43.210;27.914;2022-11-25T09:39:57;17.10;;;13.48;;
63203;SDS011;49297;43.210;27.914;2022-11-25T09:45:24;13.38;;;9.93;;
63203;SDS011;49297;43.210;27.914;2022-11-25T09:53:53;15.02;;;12.88;;
63203;SDS011;49297;43.210;27.914;2022-11-25T09:58:52;17.25;;;14.15;;
63203;SDS011;49297;43.210;27.914;2022-11-25T10:01:24;11.70;;;10.18;;
63203;SDS011;49297;43.210;27.914;2022-11-25T10:04:09;14.82;;;13.25;;
63203;SDS011;49297;43.210;27.914;2022-11-25T10:06:44;19.38;;;12.27;;
63203;SDS011;49297;43.210;27.914;2022-11-25T10:09:16;18.30;;;15.60;;
63203;SDS011;49297;43.210;27.914;2022-11-25T10:11:51;14.45;;;12.05;;
63203;SDS011;49297;43.210;27.914;2022-11-25T10:22:30;14.77;;;12.70;;
63203;SDS011;49297;43.210;27.914;2022-11-25T10:25:14;18.95;;;14.40;;
63203;SDS011;49297;43.210;27.914;2022-11-25T10:32:48;16.35;;;14.70;;
63203;SDS011;49297;43.210;27.914;2022-11-25T10:35:31;13.80;;;12.40;;
63203;SDS011;49297;43.210;27.914;2022-11-25T10:38:03;19.75;;;14.05;;
63203;SDS011;49297;43.210;27.914;2022-11-25T10:40:32;15.48;;;13.93;;
63203;SDS011;49297;43.210;27.914;2022-11-25T10:42:59;16.27;;;12.07;;
63203;SDS011;49297;43.210;27.914;2022-11-25T10:45:28;20.45;;;16.38;;
63203;SDS011;49297;43.210;27.914;2022-11-25T10:48:12;16.65;;;13.07;;
63203;SDS011;49297;43.210;27.914;2022-11-25T10:53:42;20.40;;;14.02;;
63203;SDS011;49297;43.210;27.914;2022-11-25T10:56:58;17.38;;;15.52;;
63203;SDS011;49297;43.210;27.914;2022-11-25T11:04:56;17.23;;;12.90;;
63203;SDS011;49297;43.210;27.914;2022-11-25T11:07:39;11.80;;;10.68;;
63203;SDS011;49297;43.210;27.914;2022-11-25T11:10:20;13.30;;;9.75;;
63203;SDS011;49297;43.210;27.914;2022-11-25T11:12:54;13.68;;;10.43;;
63203;SDS011;49297;43.210;27.914;2022-11-25T11:15:44;14.02;;;10.00;;
63203;SDS011;49297;43.210;27.914;2022-11-25T11:21:01;12.85;;;8.85;;
63203;SDS011;49297;43.210;27.914;2022-11-25T11:23:29;10.13;;;9.07;;
63203;SDS011;49297;43.210;27.914;2022-11-25T11:25:57;14.00;;;10.93;;
63203;SDS011;49297;43.210;27.914;2022-11-25T11:30:56;9.60;;;8.65;;
63203;SDS011;49297;43.210;27.914;2022-11-25T11:33:42;12.88;;;8.07;;
63203;SDS011;49297;43.210;27.914;2022-11-25T11:36:25;11.30;;;8.95;;
63203;SDS011;49297;43.210;27.914;2022-11-25T11:51:29;8.05;;;7.07;;
63203;SDS011;49297;43.210;27.914;2022-11-25T12:01:44;14.20;;;10.70;;
63203;SDS011;49297;43.210;27.914;2022-11-25T12:07:02;11.35;;;9.60;;
63203;SDS011;49297;43.210;27.914;2022-11-25T12:09:37;9.63;;;8.07;;
63203;SDS011;49297;43.210;27.914;2022-11-25T12:12:15;13.23;;;11.70;;
63203;SDS011;49297;43.210;27.914;2022-11-25T12:14:49;16.90;;;9.82;;
63203;SDS011;49297;43.210;27.914;2022-11-25T12:20:03;11.18;;;9.65;;
63203;SDS011;49297;43.210;27.914;2022-11-25T12:23:01;10.07;;;8.93;;
63203;SDS011;49297;43.210;27.914;2022-11-25T12:25:35;23.05;;;9.90;;
63203;SDS011;49297;43.210;27.914;2022-11-25T12:28:06;9.75;;;8.32;;
63203;SDS011;49297;43.210;27.914;2022-11-25T12:33:18;11.15;;;9.95;;
63203;SDS011;49297;43.210;27.914;2022-11-25T12:36:08;16.85;;;10.38;;
63203;SDS011;49297;43.210;27.914;2022-11-25T12:38:45;14.18;;;9.88;;
63203;SDS011;49297;43.210;27.914;2022-11-25T12:41:41;14.63;;;11.05;;
63203;SDS011;49297;43.210;27.914;2022-11-25T12:46:48;16.77;;;11.98;;
63203;SDS011;49297;43.210;27.914;2022-11-25T12:49:18;18.65;;;9.98;;
63203;SDS011;49297;43.210;27.914;2022-11-25T13:06:17;15.25;;;13.57;;
63203;SDS011;49297;43.210;27.914;2022-11-25T13:14:52;13.15;;;11.82;;
63203;SDS011;49297;43.210;27.914;2022-11-25T13:17:42;17.60;;;13.27;;
63203;SDS011;49297;43.210;27.914;2022-11-25T13:25:30;15.48;;;13.88;;
63203;SDS011;49297;43.210;27.914;2022-11-25T13:27:58;18.52;;;16.08;;
63203;SDS011;49297;43.210;27.914;2022-11-25T13:38:33;18.52;;;15.43;;
63203;SDS011;49297;43.210;27.914;2022-11-25T13:40:58;19.30;;;13.90;;
63203;SDS011;49297;43.210;27.914;2022-11-25T13:43:49;20.38;;;16.33;;
63203;SDS011;49297;43.210;27.914;2022-11-25T13:46:38;23.70;;;13.45;;
63203;SDS011;49297;43.210;27.914;2022-11-25T13:51:52;18.75;;;13.32;;
63203;SDS011;49297;43.210;27.914;2022-11-25T13:54:34;20.73;;;13.77;;
63203;SDS011;49297;43.210;27.914;2022-11-25T13:59:36;16.90;;;15.13;;
63203;SDS011;49297;43.210;27.914;2022-11-25T14:07:43;17.38;;;14.73;;
63203;SDS011;49297;43.210;27.914;2022-11-25T14:10:52;19.33;;;15.43;;
63203;SDS011;49297;43.210;27.914;2022-11-25T14:13:51;14.55;;;13.07;;
63203;SDS011;49297;43.210;27.914;2022-11-25T14:22:11;18.00;;;13.63;;
63203;SDS011;49297;43.210;27.914;2022-11-25T14:24:48;13.55;;;12.38;;
63203;SDS011;49297;43.210;27.914;2022-11-25T14:27:29;17.55;;;15.73;;
63203;SDS011;49297;43.210;27.914;2022-11-25T14:30:04;14.45;;;12.93;;
63203;SDS011;49297;43.210;27.914;2022-11-25T14:35:29;24.35;;;14.82;;
63203;SDS011;49297;43.210;27.914;2022-11-25T14:39:15;15.68;;;14.10;;
63203;SDS011;49297;43.210;27.914;2022-11-25T14:41:36;14.57;;;13.13;;
63203;SDS011;49297;43.210;27.914;2022-11-25T14:44:26;17.35;;;13.63;;
63203;SDS011;49297;43.210;27.914;2022-11-25T14:46:56;19.83;;;14.80;;
63203;SDS011;49297;43.210;27.914;2022-11-25T14:49:23;19.70;;;14.13;;
63203;SDS011;49297;43.210;27.914;2022-11-25T14:51:50;21.90;;;14.90;;
63203;SDS011;49297;43.210;27.914;2022-11-25T14:54:18;18.83;;;14.70;;
63203;SDS011;49297;43.210;27.914;2022-11-25T14:56:46;17.20;;;14.15;;
63203;SDS011;49297;43.210;27.914;2022-11-25T14:59:13;18.88;;;17.05;;
63203;SDS011;49297;43.210;27.914;2022-11-25T15:01:49;18.35;;;13.75;;
63203;SDS011;49297;43.210;27.914;2022-11-25T15:04:21;14.38;;;12.82;;
63203;SDS011;49297;43.210;27.914;2022-11-25T15:06:52;16.75;;;15.02;;
63203;SDS011;49297;43.210;27.914;2022-11-25T15:09:25;15.60;;;13.80;;
63203;SDS011;49297;43.210;27.914;2022-11-25T15:11:56;22.20;;;19.42;;
63203;SDS011;49297;43.210;27.914;2022-11-25T15:14:38;15.82;;;13.98;;
63203;SDS011;49297;43.210;27.914;2022-11-25T15:17:07;16.95;;;14.25;;
63203;SDS011;49297;43.210;27.914;2022-11-25T15:19:42;20.15;;;17.33;;
63203;SDS011;49297;43.210;27.914;2022-11-25T15:22:11;17.23;;;15.50;;
63203;SDS011;49297;43.210;27.914;2022-11-25T15:24:44;24.95;;;13.23;;
63203;SDS011;49297;43.210;27.914;2022-11-25T15:27:15;18.80;;;16.42;;
63203;SDS011;49297;43.210;27.914;2022-11-25T15:29:53;19.30;;;14.20;;
63203;SDS011;49297;43.210;27.914;2022-11-25T15:32:25;22.20;;;16.33;;
63203;SDS011;49297;43.210;27.914;2022-11-25T15:34:53;17.25;;;15.60;;
63203;SDS011;49297;43.210;27.914;2022-11-25T15:37:21;22.75;;;20.10;;
63203;SDS011;49297;43.210;27.914;2022-11-25T15:39:48;19.48;;;15.88;;
63203;SDS011;49297;43.210;27.914;2022-11-25T15:42:19;18.27;;;16.58;;
63203;SDS011;49297;43.210;27.914;2022-11-25T15:44:53;19.65;;;15.88;;
63203;SDS011;49297;43.210;27.914;2022-11-25T15:47:27;16.88;;;15.23;;
63203;SDS011;49297;43.210;27.914;2022-11-25T15:49:59;22.45;;;19.08;;
63203;SDS011;49297;43.210;27.914;2022-11-25T15:52:28;17.07;;;15.47;;
63203;SDS011;49297;43.210;27.914;2022-11-25T15:55:02;20.48;;;17.73;;
63203;SDS011;49297;43.210;27.914;2022-11-25T15:57:42;19.27;;;15.02;;
63203;SDS011;49297;43.210;27.914;2022-11-25T16:00:14;15.20;;;13.77;;
63203;SDS011;49297;43.210;27.914;2022-11-25T16:10:19;31.75;;;18.88;;
63203;SDS011;49297;43.210;27.914;2022-11-25T16:15:49;22.70;;;15.90;;
63203;SDS011;49297;43.210;27.914;2022-11-25T16:21:04;22.05;;;19.00;;
63203;SDS011;49297;43.210;27.914;2022-11-25T16:23:44;18.88;;;15.57;;
63203;SDS011;49297;43.210;27.914;2022-11-25T16:26:16;18.10;;;16.25;;
63203;SDS011;49297;43.210;27.914;2022-11-25T16:28:52;23.95;;;21.23;;
63203;SDS011;49297;43.210;27.914;2022-11-25T16:31:20;16.13;;;14.43;;
63203;SDS011;49297;43.210;27.914;2022-11-25T16:33:47;20.23;;;18.15;;
63203;SDS011;49297;43.210;27.914;2022-11-25T16:36:12;18.85;;;16.92;;
63203;SDS011;49297;43.210;27.914;2022-11-25T16:38:38;19.63;;;16.17;;
63203;SDS011;49297;43.210;27.914;2022-11-25T16:41:08;23.98;;;19.92;;
63203;SDS011;49297;43.210;27.914;2022-11-25T16:43:36;18.63;;;16.80;;
63203;SDS011;49297;43.210;27.914;2022-11-25T16:46:04;17.40;;;14.82;;
63203;SDS011;49297;43.210;27.914;2022-11-25T16:48:30;22.50;;;19.95;;
63203;SDS011;49297;43.210;27.914;2022-11-25T16:50:56;18.00;;;15.85;;
63203;SDS011;49297;43.210;27.914;2022-11-25T16:53:23;22.90;;;20.08;;
63203;SDS011;49297;43.210;27.914;2022-11-25T16:55:48;20.90;;;16.92;;
63203;SDS011;49297;43.210;27.914;2022-11-25T16:58:16;20.30;;;18.15;;
63203;SDS011;49297;43.210;27.914;2022-11-25T17:00:46;15.48;;;13.45;;